Time;durP1;ratioP1;P1;durP2;ratioP2;P2;SDS_P1;SDS_P2;PMS_P1;PMS_P2;Temp;Humidity;BMP_temperature;BMP_pressure;BME280_temperature;BME280_humidity;BME280_pressure;Samples;Min_cycle;Max_cycle;Signal;HPM_P1;HPM_P2
2022/03/24 00:02:24;;;;;;;11.85;6.65;;;;;;;4.22;100.00;98774.38;5130512;27;20051;-67
2022/03/24 00:04:50;;;;;;;14.95;6.75;;;;;;;4.34;100.00;98764.72;5129860;27;20138;-67
2022/03/24 00:07:16;;;;;;;11.23;6.50;;;;;;;4.39;100.00;98754.44;5130333;27;20558;-67
2022/03/24 00:09:43;;;;;;;10.27;5.95;;;;;;;4.45;100.00;98736.03;5130144;28;20047;-67
2022/03/24 00:12:11;;;;;;;6.95;5.18;;;;;;;4.36;100.00;98710.88;5130183;27;20058;-67
2022/03/24 00:14:38;;;;;;;10.75;5.63;;;;;;;4.29;100.00;98687.00;5130121;28;20425;-67
2022/03/24 00:17:04;;;;;;;12.13;5.88;;;;;;;4.30;100.00;98685.09;5130471;27;20484;-67
2022/03/24 00:19:31;;;;;;;11.25;5.40;;;;;;;4.38;100.00;98657.06;5130069;28;20104;-68
2022/03/24 00:21:57;;;;;;;11.18;4.93;;;;;;;4.27;100.00;98653.22;5130093;27;20086;-67
2022/03/24 00:24:57;;;;;;;10.00;4.80;;;;;;;4.18;100.00;98662.22;5129771;27;20047;-68
2022/03/24 00:27:25;;;;;;;10.35;4.63;;;;;;;4.20;100.00;98654.56;5129847;28;20133;-68
2022/03/24 00:29:51;;;;;;;6.53;4.07;;;;;;;4.17;100.00;98659.84;5130133;27;20099;-67
2022/03/24 00:32:18;;;;;;;10.25;5.30;;;;;;;4.15;100.00;98675.66;5130020;27;20047;-67
2022/03/24 00:34:45;;;;;;;6.47;4.32;;;;;;;4.19;100.00;98671.16;5130080;27;20051;-68
2022/03/24 00:37:11;;;;;;;6.50;4.07;;;;;;;4.22;100.00;98668.56;5129849;27;20425;-67
2022/03/24 00:39:38;;;;;;;7.70;4.20;;;;;;;4.15;100.00;98678.38;5129937;27;20096;-67
2022/03/24 00:42:07;;;;;;;8.15;4.38;;;;;;;4.01;100.00;98675.94;5131075;27;20593;-68
2022/03/24 00:44:34;;;;;;;7.07;4.07;;;;;;;3.90;100.00;98699.97;5133408;27;20047;-67
2022/03/24 00:47:00;;;;;;;8.88;3.97;;;;;;;3.83;100.00;98717.88;5133145;27;20552;-67
2022/03/24 00:49:26;;;;;;;6.03;3.83;;;;;;;3.72;100.00;98734.56;5133024;28;20053;-67
2022/03/24 00:51:53;;;;;;;7.07;4.20;;;;;;;3.61;100.00;98765.88;5133236;27;20043;-67
2022/03/24 00:54:19;;;;;;;8.95;4.90;;;;;;;3.52;100.00;98803.09;5133110;27;20522;-68
2022/03/24 00:56:46;;;;;;;9.52;4.65;;;;;;;3.38;100.00;98840.47;5133185;27;20051;-67
2022/03/24 00:59:12;;;;;;;7.30;4.45;;;;;;;3.35;100.00;98874.41;5132968;28;20441;-67
2022/03/24 01:01:39;;;;;;;9.77;4.65;;;;;;;3.20;100.00;98902.00;5133347;27;20086;-67
2022/03/24 01:04:06;;;;;;;8.05;3.97;;;;;;;3.23;100.00;98933.88;5132358;28;20087;-68
2022/03/24 01:06:34;;;;;;;8.45;4.43;;;;;;;3.08;100.00;98964.97;5133130;27;20047;-67
2022/03/24 01:09:00;;;;;;;7.95;4.30;;;;;;;2.92;100.00;98978.19;5132814;28;20077;-67
2022/03/24 01:11:26;;;;;;;5.80;3.80;;;;;;;2.83;100.00;99016.13;5132847;27;20057;-68
2022/03/24 01:13:53;;;;;;;7.13;4.50;;;;;;;2.82;100.00;99030.75;5132836;28;20049;-68
2022/03/24 01:16:19;;;;;;;12.60;4.25;;;;;;;2.75;100.00;99038.53;5133059;27;20657;-68
2022/03/24 01:18:46;;;;;;;9.07;4.40;;;;;;;2.74;100.00;99042.38;5132899;28;20047;-68
2022/03/24 01:21:16;;;;;;;6.30;4.05;;;;;;;2.71;100.00;99059.25;5133339;28;20065;-67
2022/03/24 01:23:43;;;;;;;10.77;4.18;;;;;;;2.68;100.00;99061.78;5132684;28;20055;-67
2022/03/24 01:26:11;;;;;;;6.72;3.90;;;;;;;2.55;100.00;99058.88;5132731;28;20097;-67
2022/03/24 01:28:39;;;;;;;7.55;3.78;;;;;;;2.36;100.00;99048.31;5132898;27;20051;-67
2022/03/24 01:31:08;;;;;;;11.20;3.88;;;;;;;2.29;100.00;99061.50;5132417;27;20529;-67
2022/03/24 01:33:35;;;;;;;8.52;4.03;;;;;;;2.19;100.00;99064.47;5132657;27;20051;-67
2022/03/24 01:36:01;;;;;;;10.65;4.70;;;;;;;2.08;100.00;99076.69;5132415;27;20057;-67
2022/03/24 01:38:28;;;;;;;7.45;4.00;;;;;;;2.05;100.00;99074.59;5132370;28;20051;-67
2022/03/24 01:40:54;;;;;;;9.00;3.80;;;;;;;2.04;100.00;99086.53;5132148;27;20492;-68
2022/03/24 01:43:20;;;;;;;5.95;4.15;;;;;;;2.11;100.00;99081.47;5132283;28;20050;-67
2022/03/24 01:45:48;;;;;;;6.70;4.00;;;;;;;2.21;100.00;99088.53;5132134;27;20451;-67
2022/03/24 01:48:14;;;;;;;10.40;3.80;;;;;;;2.33;100.00;99075.19;5132265;28;20119;-67
2022/03/24 01:50:41;;;;;;;7.72;4.43;;;;;;;2.39;100.00;99036.06;5132313;27;20097;-68
2022/03/24 01:53:08;;;;;;;6.38;4.03;;;;;;;2.51;100.00;99017.31;5131764;27;20069;-68
2022/03/24 01:55:35;;;;;;;6.68;3.83;;;;;;;2.71;100.00;99002.41;5132524;28;20138;-67
2022/03/24 01:58:02;;;;;;;5.80;4.10;;;;;;;2.68;100.00;98959.72;5132111;28;20087;-68
2022/03/24 02:00:28;;;;;;;5.20;3.58;;;;;;;2.76;100.00;98936.47;5132324;27;20054;-68
2022/03/24 02:02:57;;;;;;;6.50;4.03;;;;;;;2.75;100.00;98927.56;5131524;27;20051;-67
2022/03/24 02:05:24;;;;;;;6.63;4.00;;;;;;;2.79;100.00;98931.22;5132491;28;20055;-67
2022/03/24 02:07:50;;;;;;;7.38;3.92;;;;;;;2.84;100.00;98924.84;5131943;27;20455;-67
2022/03/24 02:10:17;;;;;;;8.30;4.20;;;;;;;2.77;100.00;98919.13;5131816;27;20047;-68
2022/03/24 02:12:43;;;;;;;8.68;3.85;;;;;;;2.88;100.00;98928.50;5131845;28;20095;-68
2022/03/24 02:15:10;;;;;;;6.25;3.92;;;;;;;2.85;100.00;98923.72;5132046;28;20139;-68
2022/03/24 02:17:39;;;;;;;9.85;4.70;;;;;;;2.87;100.00;98945.09;5131848;27;20051;-68
2022/03/24 02:20:08;;;;;;;9.75;3.75;;;;;;;2.71;100.00;98945.56;5131978;28;20047;-67
2022/03/24 02:22:36;;;;;;;7.25;4.10;;;;;;;2.80;100.00;98978.06;5132226;27;20051;-68
2022/03/24 02:25:02;;;;;;;5.57;3.40;;;;;;;2.87;100.00;98986.50;5131685;28;20047;-67
2022/03/24 02:27:28;;;;;;;5.43;3.65;;;;;;;2.85;100.00;98971.69;5132053;27;20049;-68
2022/03/24 02:29:55;;;;;;;10.73;3.95;;;;;;;2.85;100.00;98974.38;5131785;28;20083;-67
2022/03/24 02:32:22;;;;;;;7.38;3.78;;;;;;;2.86;100.00;98979.47;5132010;27;20047;-67
2022/03/24 02:34:48;;;;;;;7.18;3.63;;;;;;;2.82;100.00;98978.50;5131575;27;20096;-68
2022/03/24 02:37:17;;;;;;;6.22;3.85;;;;;;;2.84;100.00;98995.25;5131605;27;20130;-67
2022/03/24 02:39:46;;;;;;;8.23;4.45;;;;;;;2.82;100.00;98992.06;5131573;27;20054;-68
2022/03/24 02:42:14;;;;;;;7.68;4.25;;;;;;;2.80;100.00;98997.00;5131551;27;20050;-67
2022/03/24 02:44:42;;;;;;;6.72;3.50;;;;;;;2.76;100.00;99020.38;5131199;27;20160;-67
2022/03/24 02:47:10;;;;;;;7.13;3.67;;;;;;;2.75;100.00;99032.34;5131481;28;20452;-68
2022/03/24 02:49:38;;;;;;;9.07;4.32;;;;;;;2.76;100.00;99033.91;5131464;27;20058;-68
2022/03/24 02:52:06;;;;;;;6.05;4.38;;;;;;;2.80;100.00;99024.88;5131229;27;20054;-67
2022/03/24 02:54:32;;;;;;;7.53;4.30;;;;;;;2.79;100.00;99012.44;5131466;28;20057;-67
2022/03/24 02:57:00;;;;;;;5.95;4.07;;;;;;;2.78;100.00;99008.13;5131108;27;20047;-68
2022/03/24 02:59:27;;;;;;;5.63;3.75;;;;;;;2.75;100.00;99007.97;5131221;27;20047;-67
2022/03/24 03:01:56;;;;;;;7.65;4.35;;;;;;;2.73;100.00;98985.81;5130999;28;20043;-68
2022/03/24 03:04:22;;;;;;;7.93;4.68;;;;;;;2.75;100.00;98989.03;5129649;27;20057;-67
2022/03/24 03:06:49;;;;;;;6.47;4.15;;;;;;;2.63;100.00;98972.59;5130899;27;20051;-68
2022/03/24 03:09:17;;;;;;;11.02;4.03;;;;;;;2.62;100.00;98995.38;5130896;27;20078;-68
2022/03/24 03:11:44;;;;;;;8.02;4.05;;;;;;;2.71;100.00;98999.69;5130904;27;20520;-68
2022/03/24 03:14:12;;;;;;;6.15;3.80;;;;;;;2.63;100.00;98988.84;5130876;27;20054;-68
2022/03/24 03:16:39;;;;;;;7.68;3.30;;;;;;;2.56;100.00;99000.13;5131110;27;20050;-68
2022/03/24 03:19:08;;;;;;;6.38;3.80;;;;;;;2.69;100.00;99009.25;5130864;27;20047;-68
2022/03/24 03:21:35;;;;;;;5.72;3.65;;;;;;;2.61;100.00;99012.75;5131131;27;20103;-68
2022/03/24 03:24:02;;;;;;;7.30;4.07;;;;;;;2.68;100.00;99032.81;5130721;28;20043;-68
2022/03/24 03:26:29;;;;;;;4.85;3.17;;;;;;;2.76;100.00;99021.19;5130900;27;20047;-67
2022/03/24 03:28:55;;;;;;;5.82;3.90;;;;;;;2.73;100.00;99004.78;5130545;27;20043;-68
2022/03/24 03:31:23;;;;;;;5.93;3.70;;;;;;;2.65;100.00;98997.44;5130812;27;20057;-68
2022/03/24 03:33:50;;;;;;;5.05;4.00;;;;;;;2.69;100.00;98999.19;5130669;27;20055;-68
2022/03/24 03:36:17;;;;;;;4.60;3.20;;;;;;;2.58;100.00;99003.34;5130563;27;20062;-68
2022/03/24 03:38:45;;;;;;;5.65;3.60;;;;;;;2.57;100.00;99018.78;5130672;27;20069;-68
2022/03/24 03:41:11;;;;;;;7.18;3.20;;;;;;;2.62;100.00;99017.03;5130708;27;20461;-68
2022/03/24 03:43:38;;;;;;;7.50;4.00;;;;;;;2.62;100.00;99011.63;5130551;27;20048;-68
2022/03/24 03:46:04;;;;;;;6.40;3.67;;;;;;;2.63;100.00;98994.25;5130388;28;20043;-69
2022/03/24 03:48:31;;;;;;;8.68;3.65;;;;;;;2.52;100.00;98991.06;5130813;28;20491;-68
2022/03/24 03:50:58;;;;;;;6.30;3.97;;;;;;;2.42;100.00;98997.56;5130193;27;20174;-68
2022/03/24 03:53:24;;;;;;;6.88;4.07;;;;;;;2.42;100.00;99000.25;5130671;27;20051;-67
2022/03/24 03:55:51;;;;;;;7.88;4.18;;;;;;;2.39;100.00;98990.06;5130205;27;20089;-68
2022/03/24 03:58:17;;;;;;;7.75;4.57;;;;;;;2.30;100.00;98987.38;5130368;27;20054;-68
2022/03/24 04:00:56;;;;;;;8.10;4.18;;;;;;;2.22;100.00;99012.47;5130295;27;20479;-67
2022/03/24 04:03:24;;;;;;;7.07;4.25;;;;;;;2.47;100.00;99037.22;5129757;28;20115;-68
2022/03/24 04:05:52;;;;;;;6.20;4.07;;;;;;;2.56;100.00;99003.63;5130230;27;20055;-68
2022/03/24 04:08:18;;;;;;;10.45;3.97;;;;;;;2.59;100.00;98970.53;5130190;27;20529;-68
2022/03/24 04:10:44;;;;;;;6.03;4.03;;;;;;;2.59;100.00;98962.41;5130107;27;20055;-67
2022/03/24 04:13:11;;;;;;;7.80;4.18;;;;;;;2.62;100.00;98952.88;5130168;28;20502;-68
2022/03/24 04:15:38;;;;;;;6.07;3.65;;;;;;;2.62;100.00;98950.16;5131036;27;20053;-68
2022/03/24 04:18:05;;;;;;;7.07;3.75;;;;;;;2.53;100.00;98935.81;5133631;27;20051;-67
2022/03/24 04:20:32;;;;;;;7.13;4.45;;;;;;;2.58;100.00;98952.72;5134002;27;20103;-67
2022/03/24 04:23:01;;;;;;;7.38;4.50;;;;;;;2.63;100.00;98956.38;5133490;27;20069;-67
2022/03/24 04:25:28;;;;;;;8.32;3.80;;;;;;;2.78;100.00;98942.38;5133305;28;20051;-68
2022/03/24 04:27:55;;;;;;;5.25;3.97;;;;;;;2.78;100.00;98937.75;5133601;27;20092;-68
2022/03/24 04:30:22;;;;;;;7.97;4.35;;;;;;;2.81;100.00;98928.19;5133327;28;20083;-67
2022/03/24 04:32:49;;;;;;;7.45;4.38;;;;;;;2.76;100.00;98926.44;5133570;27;20101;-67
2022/03/24 04:35:16;;;;;;;5.50;3.95;;;;;;;2.78;100.00;98932.34;5133419;28;20107;-68
2022/03/24 04:37:44;;;;;;;10.73;4.43;;;;;;;2.74;100.00;98931.38;5133358;27;20094;-67
2022/03/24 04:40:13;;;;;;;7.35;4.47;;;;;;;2.77;100.00;98957.81;5133358;28;20054;-67
2022/03/24 04:42:39;;;;;;;8.55;4.95;;;;;;;2.89;100.00;98961.78;5133570;27;20043;-69
2022/03/24 04:45:06;;;;;;;7.82;4.60;;;;;;;2.86;100.00;98954.31;5133101;28;20084;-68
2022/03/24 04:47:33;;;;;;;10.25;4.68;;;;;;;2.89;100.00;98965.28;5133400;27;20047;-67
2022/03/24 04:49:59;;;;;;;10.23;5.10;;;;;;;2.98;100.00;98949.84;5132881;27;20055;-67
2022/03/24 04:52:26;;;;;;;12.70;5.45;;;;;;;2.83;100.00;98953.84;5132939;28;20673;-67
2022/03/24 04:54:52;;;;;;;7.93;4.68;;;;;;;2.84;100.00;98968.19;5132951;27;20089;-67
2022/03/24 04:57:19;;;;;;;8.65;4.95;;;;;;;2.94;100.00;98996.84;5132757;27;20229;-65
2022/03/24 04:59:45;;;;;;;9.73;4.93;;;;;;;2.96;100.00;99018.97;5133279;27;20043;-62
2022/03/24 05:02:15;;;;;;;8.27;4.75;;;;;;;3.11;100.00;99007.69;5132815;27;20112;-62
2022/03/24 05:04:41;;;;;;;7.28;5.20;;;;;;;3.24;100.00;98986.97;5139609;27;20047;-62
2022/03/24 05:07:08;;;;;;;11.90;6.00;;;;;;;3.19;100.00;98954.59;5144051;27;20428;-62
2022/03/24 05:09:34;;;;;;;10.15;4.75;;;;;;;3.20;100.00;98935.34;5153442;27;20046;-62
2022/03/24 05:12:00;;;;;;;9.30;5.30;;;;;;;3.19;100.00;98922.09;5153371;27;20143;-62
2022/03/24 05:14:27;;;;;;;8.95;4.90;;;;;;;3.29;100.00;98902.78;5153511;27;20046;-62
2022/03/24 05:16:54;;;;;;;10.63;5.38;;;;;;;3.29;100.00;98876.50;5137147;27;20047;-61
2022/03/24 05:19:20;;;;;;;10.73;5.22;;;;;;;3.14;100.00;98863.47;5153377;27;20183;-60
2022/03/24 05:21:46;;;;;;;10.07;5.35;;;;;;;3.37;100.00;98865.97;5146307;27;20054;-61
2022/03/24 05:24:12;;;;;;;10.65;5.65;;;;;;;3.47;100.00;98838.50;5138060;27;20553;-60
2022/03/24 05:26:39;;;;;;;10.30;5.50;;;;;;;3.39;100.00;98802.19;5137204;27;20047;-61
2022/03/24 05:29:06;;;;;;;15.43;5.47;;;;;;;3.60;100.00;98809.56;5137182;27;20105;-61
2022/03/24 05:31:33;;;;;;;9.77;5.65;;;;;;;3.59;100.00;98770.03;5148193;27;20600;-60
2022/03/24 05:33:59;;;;;;;8.77;5.20;;;;;;;3.43;100.00;98751.66;5139156;27;20053;-61
2022/03/24 05:36:25;;;;;;;11.65;5.40;;;;;;;3.44;100.00;98755.16;5143588;27;20054;-61
2022/03/24 05:38:52;;;;;;;11.30;5.60;;;;;;;3.57;100.00;98753.34;5138270;27;20047;-62
2022/03/24 05:41:18;;;;;;;10.65;6.03;;;;;;;3.65;100.00;98728.88;5135974;27;20051;-61
2022/03/24 05:44:02;;;;;;;9.82;6.07;;;;;;;3.71;100.00;98729.47;5133405;27;20058;-62
2022/03/24 05:46:29;;;;;;;8.40;4.45;;;;;;;3.72;100.00;98691.16;5132313;27;20084;-62
2022/03/24 05:48:56;;;;;;;11.50;6.22;;;;;;;3.74;100.00;98702.50;5141881;27;20417;-61
2022/03/24 05:51:23;;;;;;;11.38;6.30;;;;;;;3.72;100.00;98695.81;5152753;27;20063;-63
2022/03/24 05:53:49;;;;;;;10.40;5.63;;;;;;;3.65;100.00;98676.56;5152480;27;20429;-66
2022/03/24 05:56:16;;;;;;;9.82;6.20;;;;;;;3.51;100.00;98672.19;5152743;27;20324;-67
2022/03/24 05:58:42;;;;;;;10.73;6.18;;;;;;;3.45;100.00;98687.06;5148814;27;20426;-66
2022/03/24 06:01:10;;;;;;;11.80;6.43;;;;;;;3.43;100.00;98686.63;5133430;27;20051;-67
2022/03/24 06:03:37;;;;;;;11.13;6.63;;;;;;;3.44;100.00;98709.09;5139747;27;20142;-69
2022/03/24 06:06:04;;;;;;;10.23;5.28;;;;;;;3.41;100.00;98715.94;5147577;27;20524;-68
2022/03/24 06:08:30;;;;;;;21.70;6.53;;;;;;;3.42;100.00;98719.44;5142173;27;20047;-68
2022/03/24 06:10:57;;;;;;;13.05;7.00;;;;;;;3.33;100.00;98724.91;5131542;27;20055;-68
2022/03/24 06:13:25;;;;;;;12.60;7.10;;;;;;;3.29;100.00;98702.31;5131753;27;20089;-68
2022/03/24 06:15:51;;;;;;;10.05;6.75;;;;;;;3.39;100.00;98744.50;5132717;27;20425;-67
2022/03/24 06:18:18;;;;;;;18.45;6.72;;;;;;;3.42;100.00;98743.84;5143484;27;20055;-69
2022/03/24 06:20:44;;;;;;;13.98;7.22;;;;;;;3.45;100.00;98725.00;5151633;27;20057;-69
2022/03/24 06:23:11;;;;;;;8.88;5.70;;;;;;;3.51;100.00;98706.66;5152038;27;20103;-70
2022/03/24 06:25:41;;;;;;;13.75;7.18;;;;;;;3.50;100.00;98683.38;5152437;27;20498;-71
2022/03/24 06:28:08;;;;;;;16.30;6.32;;;;;;;3.51;100.00;98693.88;5137216;27;20051;-70
2022/03/24 06:30:35;;;;;;;11.30;6.68;;;;;;;3.44;100.00;98698.25;5132740;27;20047;-68
2022/03/24 06:33:01;;;;;;;14.70;7.38;;;;;;;3.49;100.00;98698.03;5131452;27;20050;-68
2022/03/24 06:35:28;;;;;;;11.63;6.90;;;;;;;3.60;100.00;98701.97;5130557;28;20091;-68
2022/03/24 06:37:55;;;;;;;11.48;7.03;;;;;;;3.61;100.00;98700.84;5131251;27;20054;-65
2022/03/24 06:40:22;;;;;;;13.35;6.95;;;;;;;3.51;100.00;98696.59;5131462;27;20047;-68
2022/03/24 06:42:49;;;;;;;14.20;6.95;;;;;;;3.50;100.00;98697.72;5130613;28;20051;-68
2022/03/24 06:45:16;;;;;;;13.77;7.13;;;;;;;3.36;100.00;98709.91;5130468;28;20454;-69
2022/03/24 06:47:42;;;;;;;14.73;6.78;;;;;;;3.33;100.00;98724.13;5130729;28;20057;-68
2022/03/24 06:50:12;;;;;;;24.77;7.18;;;;;;;3.14;100.00;98752.44;5130523;27;20468;-69
2022/03/24 06:52:38;;;;;;;12.73;7.30;;;;;;;3.24;100.00;98795.41;5132834;27;20055;-69
2022/03/24 06:55:05;;;;;;;15.13;7.10;;;;;;;3.34;100.00;98785.34;5151550;27;20047;-67
2022/03/24 06:57:33;;;;;;;15.70;7.80;;;;;;;3.38;100.00;98770.00;5151581;27;20061;-69
2022/03/24 06:59:59;;;;;;;16.02;7.38;;;;;;;3.39;100.00;98761.53;5151616;27;20505;-68
2022/03/24 07:02:25;;;;;;;17.88;7.65;;;;;;;3.33;100.00;98743.88;5150248;27;20425;-68
2022/03/24 07:04:51;;;;;;;14.57;7.03;;;;;;;3.42;100.00;98752.75;5151020;27;20134;-68
2022/03/24 07:07:19;;;;;;;11.30;6.78;;;;;;;3.48;100.00;98748.75;5135115;27;20051;-68
2022/03/24 07:09:45;;;;;;;11.57;6.18;;;;;;;3.51;100.00;98728.31;5130611;28;20479;-67
2022/03/24 07:12:12;;;;;;;13.73;6.72;;;;;;;3.61;100.00;98730.66;5130506;27;20431;-68
2022/03/24 07:14:39;;;;;;;15.52;6.78;;;;;;;3.53;100.00;98718.75;5130503;27;20055;-67
2022/03/24 07:17:05;;;;;;;15.02;7.63;;;;;;;3.47;100.00;98725.47;5140268;27;20081;-69
2022/03/24 07:19:31;;;;;;;16.63;7.15;;;;;;;3.53;100.00;98748.56;5143911;27;20417;-69
2022/03/24 07:21:58;;;;;;;9.27;6.10;;;;;;;3.56;100.00;98754.44;5138718;27;20051;-68
2022/03/24 07:24:24;;;;;;;11.90;6.15;;;;;;;3.49;100.00;98742.19;5130487;27;20043;-68
2022/03/24 07:26:50;;;;;;;11.75;8.27;;;;;;;3.28;100.00;98774.66;5138856;27;20046;-67
2022/03/24 07:29:16;;;;;;;12.00;7.25;;;;;;;3.51;100.00;98821.25;5151081;27;20051;-67
2022/03/24 07:31:43;;;;;;;12.45;7.20;;;;;;;3.40;100.00;98800.25;5149547;27;20047;-68
2022/03/24 07:34:10;;;;;;;15.13;7.18;;;;;;;3.41;100.00;98801.88;5130353;27;20054;-66
2022/03/24 07:36:36;;;;;;;21.77;6.93;;;;;;;3.42;100.00;98834.06;5134463;27;20051;-68
2022/03/24 07:39:02;;;;;;;13.30;6.18;;;;;;;3.53;100.00;98824.47;5145574;27;20509;-67
2022/03/24 07:41:32;;;;;;;11.25;6.65;;;;;;;3.42;100.00;98811.59;5143200;27;20051;-66
2022/03/24 07:43:58;;;;;;;12.75;6.78;;;;;;;3.48;100.00;98829.25;5134555;27;20093;-67
2022/03/24 07:46:25;;;;;;;10.75;6.50;;;;;;;3.40;100.00;98821.94;5130140;27;20065;-67
2022/03/24 07:48:52;;;;;;;16.13;7.45;;;;;;;3.30;100.00;98845.59;5130378;27;20081;-67
2022/03/24 07:51:19;;;;;;;14.25;7.78;;;;;;;3.32;100.00;98860.72;5140979;27;20086;-67
2022/03/24 07:53:54;;;;;;;22.17;7.82;;;;;;;3.32;100.00;98860.72;5144759;27;20421;-68
2022/03/24 07:56:24;;;;;;;16.58;8.07;;;;;;;3.39;100.00;98888.09;5133897;27;20086;-68
2022/03/24 07:58:50;;;;;;;12.95;7.10;;;;;;;3.45;100.00;98886.81;5133746;27;20086;-67
2022/03/24 08:01:25;;;;;;;12.05;6.57;;;;;;;3.44;100.00;98898.78;5138748;27;20146;-67
2022/03/24 08:03:53;;;;;;;12.18;7.43;;;;;;;3.32;100.00;98904.06;5153729;27;20130;-66
2022/03/24 08:06:20;;;;;;;11.50;7.65;;;;;;;3.50;100.00;98971.47;5154266;27;20099;-68
2022/03/24 08:08:46;;;;;;;16.70;7.70;;;;;;;3.58;100.00;98958.22;5154755;27;20433;-67
2022/03/24 08:11:12;;;;;;;14.73;8.05;;;;;;;3.58;100.00;98929.19;5154308;27;20405;-69
2022/03/24 08:13:39;;;;;;;12.95;7.25;;;;;;;3.62;100.00;98932.81;5134404;27;20058;-66
2022/03/24 08:16:06;;;;;;;12.43;6.97;;;;;;;3.72;100.00;98913.50;5153434;27;20050;-67
2022/03/24 08:18:33;;;;;;;14.90;7.65;;;;;;;3.57;100.00;98884.22;5145675;27;20058;-69
2022/03/24 08:21:00;;;;;;;15.88;6.60;;;;;;;3.65;100.00;98904.28;5133438;27;20425;-68
2022/03/24 08:23:26;;;;;;;14.48;8.15;;;;;;;3.70;100.00;98877.78;5133428;27;20055;-71
2022/03/24 08:25:53;;;;;;;13.93;6.93;;;;;;;3.68;100.00;98882.72;5144616;27;20078;-71
2022/03/24 08:28:20;;;;;;;21.20;7.90;;;;;;;3.76;100.00;98906.28;5153921;27;20051;-71
2022/03/24 08:30:46;;;;;;;15.55;7.82;;;;;;;4.04;100.00;98856.25;5153736;27;20046;-70
2022/03/24 08:33:13;;;;;;;19.35;7.97;;;;;;;4.20;100.00;98808.41;5152229;27;20497;-71
2022/03/24 08:35:41;;;;;;;16.08;7.57;;;;;;;4.34;100.00;98753.88;5142934;27;20050;-70
2022/03/24 08:38:08;;;;;;;16.35;7.45;;;;;;;4.25;100.00;98757.44;5142283;27;20112;-69
2022/03/24 08:40:35;;;;;;;13.60;8.02;;;;;;;4.41;100.00;98767.69;5144172;27;20107;-70
2022/03/24 08:43:04;;;;;;;16.55;8.43;;;;;;;4.51;100.00;98740.13;5138195;27;20057;-69
2022/03/24 08:45:30;;;;;;;19.95;8.32;;;;;;;4.66;100.00;98725.09;5132776;28;20047;-71
2022/03/24 08:47:57;;;;;;;13.00;8.27;;;;;;;4.81;100.00;98699.25;5138618;27;20066;-69
2022/03/24 08:50:23;;;;;;;17.95;7.15;;;;;;;4.59;100.00;98676.78;5135031;27;20082;-71
2022/03/24 08:52:50;;;;;;;15.98;8.15;;;;;;;4.56;100.00;98715.47;5147296;27;20053;-69
2022/03/24 08:55:18;;;;;;;13.75;8.02;;;;;;;4.70;100.00;98699.69;5152958;27;20548;-70
2022/03/24 08:57:45;;;;;;;14.23;8.43;;;;;;;4.87;100.00;98690.53;5153641;27;20133;-70
2022/03/24 09:00:13;;;;;;;14.45;8.63;;;;;;;4.89;100.00;98679.31;5146881;27;20047;-67
2022/03/24 09:02:40;;;;;;;14.15;7.63;;;;;;;4.93;100.00;98653.06;5135908;27;20505;-69
2022/03/24 09:05:06;;;;;;;16.33;8.50;;;;;;;5.16;100.00;98659.63;5146552;27;20061;-69
2022/03/24 09:07:33;;;;;;;16.83;9.80;;;;;;;5.39;100.00;98624.56;5152374;27;20047;-69
2022/03/24 09:09:59;;;;;;;13.57;7.78;;;;;;;5.64;100.00;98589.19;5147931;27;20168;-69
2022/03/24 09:12:26;;;;;;;17.17;8.82;;;;;;;5.92;100.00;98561.16;5132597;27;20149;-69
2022/03/24 09:14:52;;;;;;;12.43;8.18;;;;;;;6.20;100.00;98542.91;5132542;27;20538;-69
2022/03/24 09:17:18;;;;;;;15.30;8.98;;;;;;;6.19;100.00;98535.06;5132032;27;20089;-66
2022/03/24 09:19:45;;;;;;;15.90;7.65;;;;;;;6.83;100.00;98534.66;5134508;27;20055;-68
2022/03/24 09:22:11;;;;;;;11.57;8.15;;;;;;;7.31;100.00;98512.69;5152868;27;20051;-68
2022/03/24 09:24:37;;;;;;;13.30;8.65;;;;;;;7.61;100.00;98520.28;5151982;27;20054;-64
2022/03/24 09:27:05;;;;;;;13.68;8.07;;;;;;;8.06;100.00;98537.88;5151954;27;20054;-66
2022/03/24 09:29:32;;;;;;;15.80;8.02;;;;;;;8.30;100.00;98570.28;5152747;27;20142;-68
2022/03/24 09:31:59;;;;;;;12.00;8.75;;;;;;;8.72;100.00;98564.75;5151576;27;20482;-66
2022/03/24 09:34:26;;;;;;;14.10;8.52;;;;;;;9.06;100.00;98594.16;5153186;27;20047;-51
2022/03/24 09:36:53;;;;;;;12.80;8.45;;;;;;;9.51;100.00;98604.16;5144684;27;20487;-67
2022/03/24 09:39:19;;;;;;;15.52;8.75;;;;;;;9.49;100.00;98649.47;5135480;27;20051;-66
2022/03/24 09:41:48;;;;;;;16.42;9.25;;;;;;;9.77;100.00;98636.16;5146509;27;20061;-68
2022/03/24 09:44:15;;;;;;;14.57;9.43;;;;;;;10.14;100.00;98657.34;5145721;27;20233;-71
2022/03/24 09:46:42;;;;;;;14.15;8.02;;;;;;;10.30;100.00;98684.56;5139797;27;20047;-70
2022/03/24 09:49:10;;;;;;;17.58;9.25;;;;;;;10.21;100.00;98692.22;5152766;27;20050;-72
2022/03/24 09:51:39;;;;;;;21.42;10.45;;;;;;;10.46;100.00;98696.06;5140178;27;20391;-65
2022/03/24 09:54:07;;;;;;;19.10;9.85;;;;;;;10.48;100.00;98701.16;5152774;27;20047;-74
2022/03/24 09:56:33;;;;;;;20.30;10.00;;;;;;;10.34;100.00;98710.03;5152767;27;20046;-72
2022/03/24 09:58:59;;;;;;;15.68;9.70;;;;;;;10.21;100.00;98690.28;5152633;27;20057;-73
2022/03/24 10:01:27;;;;;;;17.92;11.10;;;;;;;10.38;100.00;98688.16;5134721;27;20051;-69
2022/03/24 10:04:06;;;;;;;17.67;11.10;;;;;;;10.47;100.00;98694.91;5131939;27;20067;-71
2022/03/24 10:06:32;;;;;;;14.65;10.05;;;;;;;10.52;100.00;98702.78;5131902;27;20129;-68
2022/03/24 10:08:59;;;;;;;15.25;9.35;;;;;;;10.58;100.00;98706.75;5131851;27;20047;-75
2022/03/24 10:11:26;;;;;;;17.65;9.68;;;;;;;10.60;100.00;98703.66;5147760;27;20051;-74
2022/03/24 10:13:55;;;;;;;14.60;10.02;;;;;;;10.58;100.00;98703.22;5151625;27;20046;-76
2022/03/24 10:16:43;;;;;;;17.27;10.63;;;;;;;10.76;100.00;98704.22;5152298;27;20141;-74
2022/03/24 10:19:17;;;;;;;16.13;10.30;;;;;;;10.89;100.00;98721.16;5150938;27;20047;-75
2022/03/24 10:21:46;;;;;;;20.90;9.73;;;;;;;10.84;100.00;98727.00;5133898;27;20096;-73
2022/03/24 10:24:14;;;;;;;17.77;10.10;;;;;;;10.85;100.00;98734.06;5138036;27;20051;-75
2022/03/24 10:26:46;;;;;;;14.10;9.80;;;;;;;10.82;100.00;98743.03;5152294;27;20407;-72
2022/03/24 10:29:14;;;;;;;15.75;10.15;;;;;;;10.82;100.00;98726.56;5146743;27;20047;-71
2022/03/24 10:31:41;;;;;;;25.33;10.05;;;;;;;10.97;100.00;98727.50;5132667;27;20078;-75
2022/03/24 10:34:10;;;;;;;19.15;10.60;;;;;;;10.96;100.00;98721.25;5137071;27;20082;-72
2022/03/24 10:36:41;;;;;;;15.98;9.90;;;;;;;11.20;100.00;98736.34;5131050;27;20052;-71
2022/03/24 10:39:08;;;;;;;18.67;9.82;;;;;;;11.21;100.00;98737.91;5133555;27;20498;-71
2022/03/24 10:41:35;;;;;;;18.17;9.98;;;;;;;11.24;100.00;98744.59;5140252;27;20552;-68
2022/03/24 10:44:06;;;;;;;31.20;10.15;;;;;;;11.11;100.00;98754.28;5150034;27;20382;-69
2022/03/24 10:46:36;;;;;;;16.73;10.00;;;;;;;11.05;100.00;98756.56;5149193;27;20051;-69
2022/03/24 10:49:15;;;;;;;19.33;9.80;;;;;;;10.90;100.00;98752.91;5131048;27;20494;-67
2022/03/24 10:51:43;;;;;;;17.45;9.57;;;;;;;10.75;100.00;98743.75;5131437;28;20086;-75
2022/03/24 10:54:18;;;;;;;18.65;9.52;;;;;;;10.72;100.00;98746.44;5131372;28;20078;-65
2022/03/24 10:56:46;;;;;;;21.20;9.95;;;;;;;10.79;100.00;98741.81;5132000;27;20158;-73
2022/03/24 10:59:12;;;;;;;17.10;9.52;;;;;;;11.01;100.00;98742.03;5151562;27;20051;-73
2022/03/24 11:01:38;;;;;;;14.27;9.55;;;;;;;11.18;100.00;98749.63;5151375;27;20513;-73
2022/03/24 11:04:05;;;;;;;16.63;9.07;;;;;;;11.48;100.00;98754.19;5150488;27;20046;-66
2022/03/24 11:06:31;;;;;;;14.63;9.07;;;;;;;11.35;100.00;98786.63;5150151;27;20043;-69
2022/03/24 11:09:00;;;;;;;18.38;9.15;;;;;;;11.38;100.00;98801.56;5144372;27;20070;-70
2022/03/24 11:11:27;;;;;;;16.42;9.27;;;;;;;11.17;100.00;98786.47;5150664;27;20430;-71
2022/03/24 11:13:55;;;;;;;25.50;9.32;;;;;;;11.17;100.00;98778.25;5151310;27;20050;-70
2022/03/24 11:16:24;;;;;;;15.48;9.80;;;;;;;11.19;100.00;98767.66;5150492;27;20053;-67
2022/03/24 11:18:52;;;;;;;14.40;8.45;;;;;;;11.28;100.00;98761.88;5150963;27;20095;-65
2022/03/24 11:21:27;;;;;;;13.00;8.68;;;;;;;11.19;100.00;98766.88;5151424;27;20051;-69
2022/03/24 11:23:55;;;;;;;11.95;8.60;;;;;;;10.78;100.00;98772.38;5151719;27;20050;-73
2022/03/24 11:26:23;;;;;;;23.30;9.23;;;;;;;10.33;100.00;98752.31;5133337;27;20127;-74
2022/03/24 11:28:50;;;;;;;12.90;8.70;;;;;;;10.02;100.00;98740.50;5130867;27;20610;-76